Time;durP1;ratioP1;P1;durP2;ratioP2;P2;SDS_P1;SDS_P2;PMS_P1;PMS_P2;Temp;Humidity;BMP_temperature;BMP_pressure;BME280_temperature;BME280_humidity;BME280_pressure;Samples;Min_cycle;Max_cycle;Signal;HPM_P1;HPM_P2
2021/07/16 00:00:19;;;;;;;15.03;8.13;;;17.10;99.90;;;;;;5080489;28;20196;-66
2021/07/16 00:02:49;;;;;;;13.20;8.57;;;17.00;99.90;;;;;;5081745;28;20346;-67
2021/07/16 00:05:18;;;;;;;15.33;8.07;;;17.00;99.90;;;;;;5081611;28;20188;-66
2021/07/16 00:07:47;;;;;;;15.33;7.97;;;17.00;99.90;;;;;;5081838;28;20183;-66
2021/07/16 00:10:19;;;;;;;19.07;9.50;;;17.00;99.90;;;;;;5079516;28;20239;-67
2021/07/16 00:12:49;;;;;;;12.70;8.50;;;17.00;99.90;;;;;;5080490;28;20197;-66
2021/07/16 00:15:18;;;;;;;13.57;8.97;;;17.00;99.90;;;;;;5080940;28;20349;-67
2021/07/16 00:17:47;;;;;;;22.03;8.90;;;17.00;99.90;;;;;;5079462;28;20353;-66
2021/07/16 00:20:16;;;;;;;13.03;8.03;;;17.00;99.90;;;;;;5081029;28;20421;-67
2021/07/16 00:22:45;;;;;;;15.40;8.97;;;17.00;99.90;;;;;;5076491;28;20188;-66
2021/07/16 00:25:14;;;;;;;18.17;8.60;;;17.00;99.90;;;;;;5079223;28;20213;-67
2021/07/16 00:27:44;;;;;;;19.00;8.70;;;16.90;99.90;;;;;;5078628;28;20428;-66
2021/07/16 00:30:13;;;;;;;15.03;8.30;;;16.90;99.90;;;;;;5076687;28;20265;-66
2021/07/16 00:32:42;;;;;;;15.53;8.30;;;16.90;99.90;;;;;;5076584;28;20485;-67
2021/07/16 00:35:11;;;;;;;13.47;8.43;;;16.90;99.90;;;;;;5080303;28;20222;-67
2021/07/16 00:37:39;;;;;;;11.87;8.03;;;16.90;99.90;;;;;;5079173;28;20207;-66
2021/07/16 00:40:11;;;;;;;11.10;7.80;;;16.90;99.90;;;;;;5081392;28;20188;-67
2021/07/16 00:42:40;;;;;;;12.53;7.87;;;16.90;99.90;;;;;;5079861;28;20246;-67
2021/07/16 00:45:12;;;;;;;14.07;7.97;;;16.90;99.90;;;;;;5076946;28;20267;-66
2021/07/16 00:47:42;;;;;;;15.07;7.63;;;16.90;99.90;;;;;;5081136;28;20425;-67
2021/07/16 00:50:13;;;;;;;12.17;7.60;;;16.90;99.90;;;;;;5076510;28;20533;-67
2021/07/16 00:52:43;;;;;;;12.20;7.27;;;16.90;99.90;;;;;;5080866;28;20179;-67
2021/07/16 00:55:13;;;;;;;14.33;7.43;;;16.90;99.90;;;;;;5079524;28;20182;-67
2021/07/16 00:57:42;;;;;;;10.20;8.10;;;16.90;99.90;;;;;;5081833;28;20347;-66
2021/07/16 01:00:13;;;;;;;14.13;8.37;;;16.80;99.90;;;;;;5079800;28;20237;-67
2021/07/16 01:02:42;;;;;;;13.83;8.60;;;16.80;99.90;;;;;;5077757;28;20188;-67
2021/07/16 01:05:15;;;;;;;13.10;8.90;;;16.80;99.90;;;;;;5077525;28;20194;-67
2021/07/16 01:07:45;;;;;;;16.13;9.33;;;16.80;99.90;;;;;;5082099;28;20175;-67
2021/07/16 01:10:14;;;;;;;14.53;9.23;;;16.80;99.90;;;;;;5079772;28;20370;-67
2021/07/16 01:12:43;;;;;;;20.77;10.53;;;16.70;99.90;;;;;;5080565;28;20196;-67
2021/07/16 01:15:15;;;;;;;20.83;10.03;;;16.60;99.90;;;;;;5076456;28;20197;-67
2021/07/16 01:17:44;;;;;;;20.33;10.87;;;16.60;99.90;;;;;;5078617;28;20470;-67
2021/07/16 01:20:16;;;;;;;21.33;10.97;;;16.60;99.90;;;;;;5080721;28;20208;-67
2021/07/16 01:22:46;;;;;;;32.60;10.80;;;16.50;99.90;;;;;;5078649;28;20238;-67
2021/07/16 01:25:20;;;;;;;19.33;11.17;;;16.40;99.90;;;;;;5078602;28;20207;-67
2021/07/16 01:27:50;;;;;;;27.27;11.53;;;16.40;99.90;;;;;;5079112;28;20286;-66
2021/07/16 01:30:20;;;;;;;24.00;11.30;;;16.40;99.90;;;;;;5080741;28;20444;-67
2021/07/16 01:32:50;;;;;;;23.20;11.90;;;16.40;99.90;;;;;;5074361;28;20236;-66
2021/07/16 01:35:19;;;;;;;30.10;11.93;;;16.30;99.90;;;;;;5073733;28;20188;-66
2021/07/16 01:37:48;;;;;;;25.70;11.50;;;16.30;99.90;;;;;;5079892;28;20215;-65
2021/07/16 01:40:20;;;;;;;21.73;11.73;;;16.40;99.90;;;;;;5081252;28;20361;-66
2021/07/16 01:42:50;;;;;;;24.13;11.43;;;16.40;99.90;;;;;;5076969;28;20184;-66
2021/07/16 01:45:21;;;;;;;28.43;12.10;;;16.40;99.90;;;;;;5075704;28;20187;-66
2021/07/16 01:47:51;;;;;;;31.77;12.50;;;16.30;99.90;;;;;;5074128;28;20186;-66
2021/07/16 01:50:19;;;;;;;27.77;12.23;;;16.30;99.90;;;;;;5078710;28;20253;-67
2021/07/16 01:52:49;;;;;;;21.30;11.70;;;16.30;99.90;;;;;;5080606;28;20214;-65
2021/07/16 01:55:20;;;;;;;23.80;12.27;;;16.30;99.90;;;;;;5079673;28;20172;-66
2021/07/16 01:57:50;;;;;;;25.33;11.10;;;16.30;99.90;;;;;;5078372;28;20220;-66
2021/07/16 02:00:21;;;;;;;26.43;10.80;;;16.30;99.90;;;;;;5075284;28;20194;-67
2021/07/16 02:02:51;;;;;;;21.03;11.63;;;16.20;99.90;;;;;;5073875;28;20437;-66
2021/07/16 02:05:20;;;;;;;22.40;11.60;;;16.20;99.90;;;;;;5073207;28;20201;-66
2021/07/16 02:07:50;;;;;;;26.20;11.33;;;16.20;99.90;;;;;;5079541;28;20182;-66
2021/07/16 02:10:21;;;;;;;31.60;11.97;;;16.20;99.90;;;;;;5078805;28;20257;-67
2021/07/16 02:12:50;;;;;;;24.07;12.13;;;16.20;99.90;;;;;;5080301;28;20196;-66
2021/07/16 02:15:20;;;;;;;26.40;11.03;;;16.20;99.90;;;;;;5079367;28;20212;-67
2021/07/16 02:17:49;;;;;;;21.63;10.80;;;16.20;99.90;;;;;;5078288;28;20203;-67
2021/07/16 02:20:22;;;;;;;24.23;10.50;;;16.10;99.90;;;;;;5078630;28;20184;-67
2021/07/16 02:22:51;;;;;;;18.17;10.17;;;16.10;99.90;;;;;;5074487;28;20392;-66
2021/07/16 02:25:22;;;;;;;25.33;10.90;;;16.10;99.90;;;;;;5076614;28;20192;-66
2021/07/16 02:27:52;;;;;;;22.07;10.50;;;16.10;99.90;;;;;;5076599;28;20181;-66
2021/07/16 02:30:23;;;;;;;19.87;10.17;;;16.10;99.90;;;;;;5077536;28;20205;-67
2021/07/16 02:32:52;;;;;;;28.30;10.57;;;16.00;99.90;;;;;;5076419;28;20248;-66
2021/07/16 02:35:21;;;;;;;22.07;10.23;;;16.00;99.90;;;;;;5072990;28;20372;-67
2021/07/16 02:37:50;;;;;;;22.37;10.97;;;16.00;99.90;;;;;;5078366;28;20267;-66
2021/07/16 02:40:20;;;;;;;21.37;9.90;;;16.00;99.90;;;;;;5074020;28;20192;-67
2021/07/16 02:42:48;;;;;;;24.20;10.87;;;16.00;99.90;;;;;;5078326;28;20182;-66
2021/07/16 02:45:18;;;;;;;22.67;11.37;;;16.00;99.90;;;;;;5076289;28;20387;-66
2021/07/16 02:47:47;;;;;;;19.33;10.43;;;16.00;99.90;;;;;;5077360;28;20193;-67
2021/07/16 02:50:18;;;;;;;24.93;10.47;;;16.00;99.90;;;;;;5074167;28;20208;-67
2021/07/16 02:52:47;;;;;;;18.67;9.83;;;16.00;99.90;;;;;;5081636;28;20237;-67
2021/07/16 02:55:15;;;;;;;19.80;9.63;;;16.00;99.90;;;;;;5084016;28;20173;-67
2021/07/16 02:57:45;;;;;;;21.20;10.27;;;16.00;99.90;;;;;;5084459;28;20200;-67
2021/07/16 03:00:16;;;;;;;15.47;9.93;;;16.00;99.90;;;;;;5085779;28;20374;-67
2021/07/16 03:02:45;;;;;;;25.33;10.00;;;16.00;99.90;;;;;;5085030;28;20188;-67
2021/07/16 03:05:16;;;;;;;16.57;9.73;;;15.90;99.90;;;;;;5083818;28;20426;-67
2021/07/16 03:07:45;;;;;;;18.30;9.67;;;15.90;99.90;;;;;;5084512;28;20176;-67
2021/07/16 03:10:16;;;;;;;25.03;10.10;;;15.90;99.90;;;;;;5084104;28;20455;-67
2021/07/16 03:12:46;;;;;;;16.23;8.87;;;15.90;99.90;;;;;;5083093;28;20181;-66
2021/07/16 03:15:17;;;;;;;19.63;9.17;;;15.90;99.90;;;;;;5083902;28;20184;-67
2021/07/16 03:17:45;;;;;;;17.93;9.77;;;15.90;99.90;;;;;;5084012;28;20394;-67
2021/07/16 03:20:16;;;;;;;22.40;9.03;;;15.90;99.90;;;;;;5084980;28;20341;-67
2021/07/16 03:22:45;;;;;;;26.60;9.13;;;15.80;99.90;;;;;;5083686;28;20188;-67
2021/07/16 03:25:15;;;;;;;19.30;8.60;;;15.80;99.90;;;;;;5098639;28;20265;-67
2021/07/16 03:27:45;;;;;;;20.27;9.00;;;15.80;99.90;;;;;;5086412;28;20227;-67
2021/07/16 03:30:17;;;;;;;17.57;9.43;;;15.80;99.90;;;;;;5083458;28;20213;-66
2021/07/16 03:32:45;;;;;;;15.23;9.30;;;15.80;99.90;;;;;;5084208;28;20199;-66
2021/07/16 03:35:14;;;;;;;18.23;9.13;;;15.80;99.90;;;;;;5081419;28;20533;-66
2021/07/16 03:37:43;;;;;;;21.60;9.53;;;15.70;99.90;;;;;;5084625;28;20364;-66
2021/07/16 03:40:14;;;;;;;16.83;8.70;;;15.80;99.90;;;;;;5083841;28;20228;-65
2021/07/16 03:42:46;;;;;;;20.50;9.57;;;15.70;99.90;;;;;;5082823;28;20202;-66
2021/07/16 03:45:18;;;;;;;14.67;9.33;;;15.70;99.90;;;;;;5084071;28;20234;-66
2021/07/16 03:47:49;;;;;;;19.40;9.27;;;15.70;99.90;;;;;;5082983;28;20182;-66
2021/07/16 03:50:20;;;;;;;20.43;9.50;;;15.70;99.90;;;;;;5082427;28;20180;-66
2021/07/16 03:52:52;;;;;;;17.30;8.97;;;15.70;99.90;;;;;;5081603;28;20213;-66
2021/07/16 03:55:21;;;;;;;20.47;8.87;;;15.70;99.90;;;;;;5083834;28;20182;-66
2021/07/16 03:57:52;;;;;;;18.93;8.87;;;15.60;99.90;;;;;;5079986;28;20196;-66
2021/07/16 04:00:26;;;;;;;15.57;8.97;;;15.60;99.90;;;;;;5082196;28;20219;-66
2021/07/16 04:02:54;;;;;;;19.07;9.63;;;15.60;99.90;;;;;;5077663;28;20188;-66
2021/07/16 04:05:23;;;;;;;16.63;8.60;;;15.60;99.90;;;;;;5080498;28;20228;-66
2021/07/16 04:07:53;;;;;;;18.00;9.00;;;15.60;99.90;;;;;;5081699;28;20338;-66
2021/07/16 04:10:23;;;;;;;16.80;8.23;;;15.60;99.90;;;;;;5079763;28;20192;-65
2021/07/16 04:13:37;;;;;;;18.73;8.80;;;15.60;99.90;;;;;;5080280;28;20195;-65
2021/07/16 04:16:13;;;;;;;15.77;8.87;;;15.70;99.90;;;;;;5061219;28;20571;-66
2021/07/16 04:18:42;;;;;;;14.23;8.07;;;15.60;99.90;;;;;;5079301;28;20314;-66
2021/07/16 04:21:10;;;;;;;20.47;8.37;;;15.60;99.90;;;;;;5080615;28;20239;-66
2021/07/16 04:23:38;;;;;;;12.20;7.70;;;15.60;99.90;;;;;;5075804;28;20232;-66
2021/07/16 04:26:07;;;;;;;17.43;7.80;;;15.70;99.90;;;;;;5079559;28;20426;-65
2021/07/16 04:28:36;;;;;;;16.90;8.37;;;15.70;99.90;;;;;;5078508;28;20181;-66
2021/07/16 04:31:05;;;;;;;15.57;7.50;;;15.70;99.90;;;;;;5079384;28;20180;-66
2021/07/16 04:33:33;;;;;;;12.47;7.20;;;15.60;99.90;;;;;;5080623;28;20488;-66
2021/07/16 04:36:02;;;;;;;21.27;8.77;;;15.60;99.90;;;;;;5056025;28;20411;-65
2021/07/16 04:38:30;;;;;;;18.20;7.93;;;15.60;99.90;;;;;;5080677;28;20203;-66
2021/07/16 04:40:59;;;;;;;17.70;7.70;;;15.70;99.90;;;;;;5078433;28;20200;-65
2021/07/16 04:43:27;;;;;;;13.97;7.27;;;15.60;99.90;;;;;;5081616;28;20180;-66
2021/07/16 04:45:57;;;;;;;14.37;7.43;;;15.60;99.90;;;;;;5080271;28;20184;-65
2021/07/16 04:48:25;;;;;;;22.33;7.70;;;15.70;99.90;;;;;;5077729;28;20360;-66
2021/07/16 04:50:54;;;;;;;19.07;8.17;;;15.70;99.90;;;;;;5077091;28;20192;-66
2021/07/16 04:53:22;;;;;;;13.90;7.63;;;15.70;99.90;;;;;;5080837;28;20493;-66
2021/07/16 04:55:50;;;;;;;18.40;7.00;;;15.80;99.90;;;;;;5081943;28;20213;-66
2021/07/16 04:58:19;;;;;;;13.87;6.97;;;15.80;99.90;;;;;;5081105;28;20413;-66
2021/07/16 05:00:47;;;;;;;13.43;7.17;;;15.80;99.90;;;;;;5080080;28;20219;-66
2021/07/16 05:03:17;;;;;;;16.13;7.10;;;15.80;99.90;;;;;;5078126;28;20188;-66
2021/07/16 05:05:45;;;;;;;13.10;6.87;;;15.80;99.90;;;;;;5077393;28;20185;-66
2021/07/16 05:08:16;;;;;;;14.03;6.47;;;15.80;99.90;;;;;;5082455;28;20184;-66
2021/07/16 05:10:44;;;;;;;18.50;6.63;;;15.80;99.90;;;;;;5082645;28;20227;-66
2021/07/16 05:13:13;;;;;;;16.87;6.93;;;15.80;99.90;;;;;;5079513;28;20185;-66
2021/07/16 05:15:41;;;;;;;18.43;6.87;;;15.80;99.90;;;;;;5076781;28;20177;-66
2021/07/16 05:18:10;;;;;;;14.07;6.70;;;15.80;99.90;;;;;;5073201;28;20441;-66
2021/07/16 05:20:39;;;;;;;17.33;6.33;;;15.80;99.90;;;;;;5078991;28;20206;-66
2021/07/16 05:23:07;;;;;;;17.50;7.03;;;15.80;99.90;;;;;;5076531;28;20190;-65
2021/07/16 05:25:36;;;;;;;12.93;7.30;;;15.80;99.90;;;;;;5077331;28;20185;-66
2021/07/16 05:28:04;;;;;;;17.07;7.20;;;15.80;99.90;;;;;;5082329;28;20382;-66
2021/07/16 05:30:33;;;;;;;13.13;6.53;;;15.90;99.90;;;;;;5071824;28;20442;-66
2021/07/16 05:33:01;;;;;;;12.73;6.63;;;15.90;99.90;;;;;;5073136;28;20407;-65
2021/07/16 05:35:30;;;;;;;15.27;6.90;;;15.90;99.90;;;;;;5077852;28;20197;-66
2021/07/16 05:38:02;;;;;;;14.97;7.20;;;15.90;99.90;;;;;;5074780;28;20196;-66
2021/07/16 05:40:31;;;;;;;14.83;7.23;;;15.90;99.90;;;;;;5074574;28;20203;-65
2021/07/16 05:43:04;;;;;;;15.80;7.27;;;16.00;99.90;;;;;;5079168;28;20429;-65
2021/07/16 05:45:33;;;;;;;17.30;6.97;;;16.00;99.90;;;;;;5077153;28;20183;-66
2021/07/16 05:48:03;;;;;;;14.83;6.63;;;16.00;99.90;;;;;;5078567;28;20186;-65
2021/07/16 05:50:31;;;;;;;14.80;6.67;;;16.10;99.90;;;;;;5077328;28;20437;-66
2021/07/16 05:53:00;;;;;;;18.27;6.57;;;16.10;99.90;;;;;;5075839;28;20450;-65
2021/07/16 05:55:30;;;;;;;14.17;6.77;;;16.20;99.90;;;;;;5077942;28;20189;-66
2021/07/16 05:57:58;;;;;;;13.07;5.80;;;16.20;99.90;;;;;;5078334;28;20401;-66
2021/07/16 06:00:27;;;;;;;13.77;6.53;;;16.20;99.90;;;;;;5078619;28;20280;-66
2021/07/16 06:02:58;;;;;;;11.97;6.23;;;16.20;99.90;;;;;;5078271;28;20193;-66
2021/07/16 06:05:27;;;;;;;12.03;6.00;;;16.30;99.90;;;;;;5078612;28;20199;-66
2021/07/16 06:07:55;;;;;;;17.70;6.90;;;16.30;99.90;;;;;;5080355;28;20244;-65
2021/07/16 06:10:26;;;;;;;12.20;6.37;;;16.40;99.90;;;;;;5077118;28;20259;-65
2021/07/16 06:12:56;;;;;;;13.50;6.67;;;16.40;99.90;;;;;;5077757;28;20181;-66
2021/07/16 06:15:26;;;;;;;15.00;6.93;;;16.40;99.90;;;;;;5079648;28;20207;-66
2021/07/16 06:17:54;;;;;;;13.93;7.00;;;16.40;99.90;;;;;;5080423;28;20232;-66
2021/07/16 06:20:23;;;;;;;13.63;6.77;;;16.50;99.90;;;;;;5074854;28;20252;-66
2021/07/16 06:22:51;;;;;;;11.27;6.20;;;16.40;99.90;;;;;;5076395;28;20176;-66
2021/07/16 06:25:19;;;;;;;16.17;6.63;;;16.50;99.90;;;;;;5076808;28;20235;-65
2021/07/16 06:27:48;;;;;;;12.20;6.47;;;16.60;99.90;;;;;;5072065;28;20210;-66
2021/07/16 06:30:18;;;;;;;15.53;6.80;;;16.60;99.90;;;;;;5079666;28;20177;-66
2021/07/16 06:32:47;;;;;;;14.17;6.80;;;16.70;99.90;;;;;;5080431;28;20180;-66
2021/07/16 06:35:15;;;;;;;18.07;6.80;;;16.70;99.90;;;;;;5077322;28;20393;-66
2021/07/16 06:37:43;;;;;;;10.27;5.70;;;16.70;99.90;;;;;;5077752;28;20234;-66
2021/07/16 06:40:13;;;;;;;16.87;6.53;;;16.70;99.90;;;;;;5078142;28;20220;-66
2021/07/16 06:42:42;;;;;;;14.07;6.47;;;16.70;99.90;;;;;;5079544;28;20236;-66
2021/07/16 06:45:11;;;;;;;15.80;6.47;;;16.70;99.90;;;;;;5079392;28;20195;-66
2021/07/16 06:47:40;;;;;;;16.47;6.07;;;16.70;99.90;;;;;;5078662;28;20317;-66
2021/07/16 06:50:10;;;;;;;11.40;5.67;;;16.80;99.90;;;;;;5078352;28;20417;-66
2021/07/16 06:52:38;;;;;;;18.93;6.33;;;16.80;99.90;;;;;;5078612;28;20183;-66
2021/07/16 06:55:09;;;;;;;14.67;5.70;;;16.70;99.90;;;;;;5078503;28;20272;-66
2021/07/16 06:57:37;;;;;;;15.10;5.97;;;16.80;99.90;;;;;;5077367;28;20180;-66
2021/07/16 07:00:07;;;;;;;14.20;5.63;;;16.80;99.90;;;;;;5076469;28;20207;-65
2021/07/16 07:02:35;;;;;;;17.63;5.70;;;16.80;99.90;;;;;;5078417;28;20265;-66
2021/07/16 07:05:07;;;;;;;14.20;6.13;;;16.90;99.90;;;;;;5075514;28;20191;-65
2021/07/16 07:07:36;;;;;;;16.30;5.77;;;16.90;99.90;;;;;;5078698;28;20321;-66
2021/07/16 07:10:05;;;;;;;16.80;5.67;;;17.00;99.90;;;;;;5078352;28;20183;-65
2021/07/16 07:12:33;;;;;;;16.50;5.87;;;17.10;99.90;;;;;;5080393;28;20183;-66
2021/07/16 07:15:02;;;;;;;13.87;6.40;;;17.10;99.90;;;;;;5075972;28;20348;-66
2021/07/16 07:17:31;;;;;;;19.03;5.97;;;17.10;99.90;;;;;;5075829;28;20186;-66
2021/07/16 07:20:00;;;;;;;9.87;5.10;;;17.20;99.90;;;;;;5079468;28;20424;-66
2021/07/16 07:22:29;;;;;;;16.53;5.60;;;17.20;99.90;;;;;;5078494;28;20187;-66
2021/07/16 07:24:58;;;;;;;11.47;5.27;;;17.20;99.90;;;;;;5079140;28;20427;-66
2021/07/16 07:27:30;;;;;;;11.57;5.50;;;17.30;99.90;;;;;;5073289;28;20180;-66
2021/07/16 07:29:59;;;;;;;15.33;5.50;;;17.40;99.90;;;;;;5078807;28;20187;-66
2021/07/16 07:32:27;;;;;;;11.97;5.33;;;17.40;99.90;;;;;;5079282;28;20198;-66
2021/07/16 07:34:56;;;;;;;16.20;5.53;;;17.50;99.90;;;;;;5078982;28;20664;-66
2021/07/16 07:37:24;;;;;;;15.10;5.17;;;17.50;99.90;;;;;;5076712;28;20714;-66
2021/07/16 07:39:54;;;;;;;14.30;5.13;;;17.50;99.90;;;;;;5080713;28;20199;-66
2021/07/16 07:42:25;;;;;;;13.40;4.97;;;17.50;99.90;;;;;;5082161;28;20221;-66
2021/07/16 07:44:54;;;;;;;17.17;5.27;;;17.60;99.90;;;;;;5082902;28;20317;-66
2021/07/16 07:47:23;;;;;;;15.17;5.53;;;17.60;99.90;;;;;;5079250;28;20202;-66
2021/07/16 07:49:51;;;;;;;15.20;5.10;;;17.60;99.90;;;;;;5082407;28;20428;-66
2021/07/16 07:52:21;;;;;;;16.97;5.53;;;17.70;99.90;;;;;;5079721;28;20179;-66
2021/07/16 07:54:49;;;;;;;12.93;5.40;;;17.80;99.90;;;;;;5082226;28;20176;-66
2021/07/16 07:57:19;;;;;;;19.50;5.90;;;17.90;99.90;;;;;;5080221;28;20325;-65
2021/07/16 07:59:47;;;;;;;14.33;4.97;;;18.00;99.90;;;;;;5075979;28;20192;-66
2021/07/16 08:02:15;;;;;;;16.43;5.10;;;18.10;99.90;;;;;;5084121;28;20207;-66
2021/07/16 08:04:44;;;;;;;12.57;4.70;;;18.10;99.90;;;;;;5081755;28;20176;-66
2021/07/16 08:07:12;;;;;;;12.27;4.80;;;18.10;99.90;;;;;;5079717;28;20226;-65
2021/07/16 08:09:41;;;;;;;18.60;5.20;;;18.20;99.90;;;;;;5079828;28;20328;-66
2021/07/16 08:12:10;;;;;;;17.30;4.63;;;18.10;99.90;;;;;;5083098;28;20176;-66
2021/07/16 08:14:40;;;;;;;17.93;5.60;;;18.30;99.90;;;;;;5082167;28;20184;-66
2021/07/16 08:17:08;;;;;;;12.73;4.73;;;18.40;99.90;;;;;;5082278;28;20192;-66
2021/07/16 08:19:37;;;;;;;14.70;4.90;;;18.60;99.90;;;;;;5081125;28;20441;-66
2021/07/16 08:22:05;;;;;;;11.37;4.73;;;18.80;99.90;;;;;;5079461;28;20224;-66
2021/07/16 08:24:34;;;;;;;15.87;5.07;;;18.90;99.90;;;;;;5074601;28;20180;-66
2021/07/16 08:27:02;;;;;;;18.07;4.90;;;18.80;99.90;;;;;;5079230;28;20199;-66
2021/07/16 08:29:30;;;;;;;14.70;4.57;;;18.70;99.90;;;;;;5081448;28;20180;-66
2021/07/16 08:32:01;;;;;;;11.27;4.00;;;18.80;99.90;;;;;;5079084;28;20312;-66
2021/07/16 08:34:29;;;;;;;15.40;4.50;;;18.90;99.90;;;;;;5076071;28;20364;-66
2021/07/16 08:36:58;;;;;;;7.77;3.60;;;18.90;99.90;;;;;;5080274;28;20433;-66
2021/07/16 08:39:27;;;;;;;15.90;4.63;;;18.90;99.90;;;;;;5080632;28;20196;-66
2021/07/16 08:41:55;;;;;;;13.77;4.10;;;18.80;99.90;;;;;;5075728;28;20816;-66
2021/07/16 08:44:24;;;;;;;13.63;3.77;;;18.90;99.90;;;;;;5081768;28;20187;-66
2021/07/16 08:46:55;;;;;;;21.07;4.47;;;19.10;99.90;;;;;;5080503;28;20210;-66
2021/07/16 08:49:26;;;;;;;16.30;4.57;;;19.10;99.90;;;;;;5081559;28;20184;-66
2021/07/16 08:51:55;;;;;;;12.87;3.80;;;19.00;99.90;;;;;;5081765;28;20180;-66
2021/07/16 08:54:24;;;;;;;18.43;4.13;;;18.90;99.90;;;;;;5079080;28;20187;-66
2021/07/16 08:56:52;;;;;;;14.20;4.10;;;18.70;99.90;;;;;;5080676;28;20188;-66
2021/07/16 08:59:21;;;;;;;15.23;4.30;;;18.50;99.90;;;;;;5080572;28;20230;-66
2021/07/16 09:01:51;;;;;;;15.63;4.37;;;18.60;99.90;;;;;;5080654;28;20210;-66
2021/07/16 09:04:24;;;;;;;18.73;4.33;;;18.50;99.90;;;;;;5073147;28;20264;-66
2021/07/16 09:06:54;;;;;;;10.73;4.27;;;18.50;99.90;;;;;;5079169;28;20249;-66
2021/07/16 09:09:31;;;;;;;13.53;4.13;;;18.40;99.90;;;;;;5080892;28;20336;-66
2021/07/16 09:11:59;;;;;;;15.17;4.33;;;18.30;99.90;;;;;;5079741;28;20328;-66
2021/07/16 09:14:30;;;;;;;14.13;4.33;;;18.30;99.90;;;;;;5080946;28;20443;-66
2021/07/16 09:17:01;;;;;;;11.83;3.73;;;18.30;99.90;;;;;;5079560;28;20363;-65
2021/07/16 09:19:33;;;;;;;17.90;4.80;;;18.30;99.90;;;;;;5080917;28;20196;-66
2021/07/16 09:22:05;;;;;;;10.67;4.33;;;18.30;99.90;;;;;;5078037;28;20234;-66
2021/07/16 09:24:34;;;;;;;16.20;4.73;;;18.40;99.90;;;;;;5080632;28;20391;-66
2021/07/16 09:27:03;;;;;;;11.50;4.47;;;18.40;99.90;;;;;;5079293;28;20186;-66
2021/07/16 09:29:33;;;;;;;19.00;4.10;;;18.60;99.90;;;;;;5081846;28;20169;-66
2021/07/16 09:32:07;;;;;;;15.40;4.23;;;18.70;99.90;;;;;;5080542;28;20226;-66
2021/07/16 09:34:37;;;;;;;16.23;4.17;;;19.00;99.90;;;;;;5075270;28;20212;-66
2021/07/16 09:37:09;;;;;;;19.40;4.43;;;19.20;99.90;;;;;;5080683;28;20204;-66
2021/07/16 09:39:38;;;;;;;18.30;4.40;;;19.50;99.90;;;;;;5080521;28;20195;-65
2021/07/16 09:42:07;;;;;;;17.03;4.50;;;19.60;99.90;;;;;;5079171;28;20232;-66
2021/07/16 09:44:40;;;;;;;14.20;4.37;;;19.40;99.90;;;;;;5077855;28;20340;-66
2021/07/16 09:47:12;;;;;;;14.63;4.70;;;19.30;99.90;;;;;;5076397;28;20226;-66
2021/07/16 09:49:43;;;;;;;17.20;4.53;;;19.20;99.90;;;;;;5079642;28;20210;-66
2021/07/16 09:52:14;;;;;;;13.97;4.20;;;19.10;99.90;;;;;;5073755;28;20259;-65
2021/07/16 09:55:07;;;;;;;13.13;4.20;;;19.10;99.90;;;;;;5077394;28;20180;-66
2021/07/16 09:57:44;;;;;;;21.00;5.07;;;19.40;99.90;;;;;;5078100;28;20443;-66
2021/07/16 10:00:17;;;;;;;11.83;4.77;;;19.50;99.90;;;;;;5079345;28;20249;-65
2021/07/16 10:02:48;;;;;;;14.23;4.23;;;19.60;99.90;;;;;;5079563;28;20208;-66
2021/07/16 10:05:19;;;;;;;17.20;4.50;;;19.70;99.90;;;;;;5077604;28;20184;-66
2021/07/16 10:07:48;;;;;;;18.13;5.00;;;19.60;99.90;;;;;;5073923;28;20238;-66
2021/07/16 10:10:18;;;;;;;21.23;4.43;;;19.50;99.90;;;;;;5076883;28;20187;-66
2021/07/16 10:12:48;;;;;;;17.73;4.23;;;19.60;99.90;;;;;;5077128;28;20192;-66
2021/07/16 10:15:19;;;;;;;16.37;5.10;;;19.60;99.90;;;;;;5076454;28;20242;-66
2021/07/16 10:17:47;;;;;;;13.73;4.80;;;19.70;99.90;;;;;;5077754;28;20412;-66
2021/07/16 10:20:19;;;;;;;14.23;4.27;;;19.70;99.90;;;;;;5079337;28;20192;-66
2021/07/16 10:22:51;;;;;;;12.53;4.47;;;19.80;99.90;;;;;;5079074;28;20220;-66
2021/07/16 10:25:22;;;;;;;11.03;4.33;;;19.90;99.90;;;;;;5080649;28;20203;-66
2021/07/16 10:27:51;;;;;;;15.43;4.80;;;20.00;99.90;;;;;;5081868;28;20180;-66
2021/07/16 10:30:20;;;;;;;12.73;4.30;;;20.20;99.90;;;;;;5079833;28;20466;-66
2021/07/16 10:32:50;;;;;;;15.40;4.90;;;20.30;99.90;;;;;;5078369;28;20259;-66
2021/07/16 10:35:21;;;;;;;16.60;4.50;;;20.10;99.90;;;;;;5081827;28;20211;-66
2021/07/16 10:37:51;;;;;;;15.23;4.43;;;19.90;99.90;;;;;;5074941;28;20184;-66
2021/07/16 10:40:37;;;;;;;18.57;4.70;;;19.80;99.90;;;;;;5080873;28;20310;-66
2021/07/16 10:43:06;;;;;;;15.60;4.90;;;19.70;99.90;;;;;;5079451;28;20204;-66
2021/07/16 10:45:36;;;;;;;17.00;5.17;;;19.60;99.90;;;;;;5075682;28;20456;-66
2021/07/16 10:48:14;;;;;;;12.00;5.10;;;19.60;99.90;;;;;;5078067;28;20204;-66
2021/07/16 10:50:45;;;;;;;20.03;5.37;;;19.60;99.90;;;;;;5082379;28;20180;-66
2021/07/16 10:53:18;;;;;;;13.73;4.30;;;19.60;99.90;;;;;;5076817;28;20457;-66
2021/07/16 10:56:03;;;;;;;14.80;4.30;;;19.60;99.90;;;;;;5080037;28;20239;-66
2021/07/16 10:58:43;;;;;;;13.70;4.63;;;19.50;99.90;;;;;;5075963;28;20258;-66
2021/07/16 11:01:13;;;;;;;18.33;4.90;;;19.40;99.90;;;;;;5073113;28;20184;-66
2021/07/16 11:03:43;;;;;;;11.07;4.70;;;19.30;99.90;;;;;;5073841;28;20226;-66
2021/07/16 11:06:14;;;;;;;16.53;5.10;;;19.40;99.90;;;;;;5078112;28;20195;-66
2021/07/16 11:08:54;;;;;;;15.40;4.70;;;19.50;99.90;;;;;;5079632;28;20520;-66
2021/07/16 11:11:35;;;;;;;18.77;4.77;;;19.60;99.90;;;;;;5077977;28;20187;-65
2021/07/16 11:14:04;;;;;;;14.43;4.80;;;19.80;99.90;;;;;;5077216;28;20187;-66
2021/07/16 11:16:43;;;;;;;10.63;4.17;;;20.10;99.90;;;;;;5083683;28;20186;-67
2021/07/16 11:19:25;;;;;;;16.00;4.67;;;20.20;99.90;;;;;;5080699;28;20184;-66
2021/07/16 11:22:08;;;;;;;13.70;4.83;;;20.10;99.90;;;;;;5080152;28;20219;-66
2021/07/16 11:24:42;;;;;;;20.13;5.20;;;19.80;99.90;;;;;;5084826;28;20480;-66
2021/07/16 11:27:12;;;;;;;13.70;5.10;;;19.70;99.90;;;;;;5084483;28;20187;-67
2021/07/16 11:29:43;;;;;;;12.27;4.63;;;19.70;99.90;;;;;;5080770;28;20187;-66
2021/07/16 11:32:14;;;;;;;17.43;5.27;;;19.80;99.90;;;;;;5085639;28;20184;-66
2021/07/16 11:34:52;;;;;;;15.07;5.20;;;20.00;99.90;;;;;;5082275;28;20220;-65
2021/07/16 11:37:27;;;;;;;16.67;4.67;;;20.40;99.90;;;;;;5083427;28;20195;-66
2021/07/16 11:40:00;;;;;;;12.27;4.40;;;20.80;99.90;;;;;;5083967;28;20420;-66
2021/07/16 11:42:28;;;;;;;13.93;4.63;;;20.90;99.90;;;;;;5083223;28;20187;-66
2021/07/16 11:44:57;;;;;;;13.93;4.67;;;21.10;99.90;;;;;;5083223;28;20431;-66
2021/07/16 11:47:31;;;;;;;16.03;4.90;;;21.40;99.90;;;;;;5082520;28;20186;-66
2021/07/16 11:50:01;;;;;;;11.43;4.50;;;21.50;99.90;;;;;;5084173;28;20185;-66
2021/07/16 11:52:32;;;;;;;15.67;5.17;;;21.40;99.90;;;;;;5080016;28;20196;-66
2021/07/16 11:55:07;;;;;;;10.50;4.30;;;21.00;99.90;;;;;;5083373;28;20183;-66
2021/07/16 11:57:53;;;;;;;16.47;4.70;;;20.80;99.90;;;;;;5084304;28;20481;-66
2021/07/16 12:00:24;;;;;;;12.87;4.77;;;21.00;99.90;;;;;;5083983;28;20183;-66
2021/07/16 12:03:00;;;;;;;10.27;4.80;;;21.30;99.90;;;;;;5085012;28;20203;-66
2021/07/16 12:05:29;;;;;;;12.87;4.27;;;21.80;99.90;;;;;;5082247;28;20203;-66
2021/07/16 12:07:58;;;;;;;23.70;5.00;;;22.40;99.90;;;;;;5084004;28;20203;-66
2021/07/16 12:10:27;;;;;;;15.33;4.57;;;22.70;99.90;;;;;;5082313;28;20197;-67
2021/07/16 12:13:01;;;;;;;12.87;4.67;;;22.70;99.90;;;;;;5074748;28;20368;-66
2021/07/16 12:15:30;;;;;;;15.20;4.90;;;22.20;99.90;;;;;;5084163;28;20429;-66
2021/07/16 12:17:59;;;;;;;13.53;4.63;;;22.00;99.90;;;;;;5084731;28;20292;-66
2021/07/16 12:20:30;;;;;;;12.07;4.60;;;22.00;99.90;;;;;;5083813;28;20437;-66
2021/07/16 12:23:06;;;;;;;13.17;4.30;;;22.10;99.90;;;;;;5083936;28;20229;-66
2021/07/16 12:25:35;;;;;;;19.23;4.13;;;22.70;99.90;;;;;;5080159;28;20384;-67
2021/07/16 12:28:05;;;;;;;8.73;3.87;;;23.40;99.90;;;;;;5077526;28;20186;-66
2021/07/16 12:30:35;;;;;;;12.70;4.33;;;23.90;99.90;;;;;;5072620;28;20190;-66
2021/07/16 12:33:05;;;;;;;12.10;4.13;;;23.70;99.90;;;;;;5077110;28;20207;-66
2021/07/16 12:35:38;;;;;;;11.33;4.17;;;23.40;99.90;;;;;;5079925;28;20187;-66
2021/07/16 12:38:09;;;;;;;15.50;4.20;;;23.00;99.90;;;;;;5079119;28;20421;-66
2021/07/16 12:40:38;;;;;;;12.40;4.33;;;22.60;99.90;;;;;;5083619;28;20185;-66
2021/07/16 12:43:10;;;;;;;13.30;4.67;;;22.40;99.90;;;;;;5083000;28;20205;-66
2021/07/16 12:45:44;;;;;;;11.67;4.50;;;22.30;99.90;;;;;;5079189;28;20185;-66
2021/07/16 12:48:26;;;;;;;14.33;4.47;;;22.40;99.90;;;;;;5081635;28;20204;-66
2021/07/16 12:51:08;;;;;;;14.57;5.10;;;22.40;99.90;;;;;;5077160;28;20185;-66